EKKA/KRP METAR and TAF weather

Enter ICAO airport designator
Station Type Date Time Source
EKKA METAR 2018/04/20 08:50 UTC NOAA

EKKA 200850Z AUTO 19008KT 150V220 9999NDV NCD 23/12 Q1019 NOSIG


Station Type Date Time Source
EKKA Decoded METAR 2018/04/20 08:50 UTC NOAA

Karup, Denmark (EKKA) 56-18N 009-07E 53M
Apr 20, 2018 - 04:50 AM EDT / 2018.04.20 0850 UTC
Wind: from the S (190 degrees) at 9 MPH (8 KT) (direction variable):0
Temperature: 73 F (23 C)
Dew Point: 53 F (12 C)
Relative Humidity: 49%
Pressure (altimeter): 30.09 in. Hg (1019 hPa)
ob: EKKA 200850Z AUTO 19008KT 150V220 9999NDV NCD 23/12 Q1019 NOSIG
cycle: 9

Station Type Date Time Source
EKKA TAF 2018/04/20 09:31 UTC NOAA

TAF EKKA 200828Z 2009/2106 19008KT 9999 FEW250
BECMG 2010/2013 28013KT


Example: see airport list